createdAt,value
2019-02-12T06:21:38.020Z,1.92
2019-02-12T06:24:04.184Z,1.70
2019-02-12T06:26:30.341Z,1.35
2019-02-12T06:28:56.518Z,1.82
2019-02-12T06:31:22.668Z,1.45
2019-02-12T06:33:48.895Z,1.60
2019-02-12T06:36:15.072Z,1.30
2019-02-12T06:38:41.262Z,1.50
2019-02-12T06:41:07.383Z,1.47
2019-02-12T06:43:33.647Z,1.50
2019-02-12T06:45:59.794Z,2.40
2019-02-12T06:48:25.944Z,1.20
2019-02-12T06:50:52.116Z,1.77
2019-02-12T06:53:18.327Z,1.45
2019-02-12T06:55:44.480Z,1.67
2019-02-12T06:58:10.666Z,1.70
2019-02-12T07:00:36.811Z,1.50
2019-02-12T07:03:02.970Z,1.27
2019-02-12T07:05:29.145Z,1.52
2019-02-12T07:07:56.470Z,1.57
2019-02-12T07:10:22.726Z,1.70
2019-02-12T07:12:48.895Z,1.50
2019-02-12T07:15:15.049Z,1.85
2019-02-12T07:17:41.200Z,1.52
2019-02-12T07:20:07.377Z,2.02
2019-02-12T07:22:33.527Z,2.37
2019-02-12T07:24:59.709Z,1.80
2019-02-12T07:27:25.884Z,1.90
2019-02-12T07:29:52.054Z,1.70
2019-02-12T07:32:18.218Z,2.12
2019-02-12T07:34:44.458Z,2.22
2019-02-12T07:37:10.618Z,2.05
2019-02-12T07:39:36.779Z,2.22
2019-02-12T07:42:02.960Z,1.87
2019-02-12T07:44:29.135Z,1.90
2019-02-12T07:46:55.287Z,2.00
2019-02-12T07:49:21.461Z,1.72
2019-02-12T07:51:47.613Z,2.30
2019-02-12T07:54:13.844Z,1.98
2019-02-12T07:56:40.017Z,1.95
2019-02-12T07:59:06.180Z,2.20
2019-02-12T08:01:32.342Z,2.00
2019-02-12T08:03:58.676Z,2.30
2019-02-12T08:06:24.839Z,1.92
2019-02-12T08:08:50.995Z,2.00
2019-02-12T08:11:17.164Z,2.00
2019-02-12T08:13:43.376Z,2.20
2019-02-12T08:16:09.536Z,2.85
2019-02-12T08:18:35.799Z,2.02
2019-02-12T08:21:01.960Z,2.15
2019-02-12T08:23:28.196Z,2.10
2019-02-12T08:25:54.373Z,1.98
2019-02-12T08:28:20.528Z,1.72
2019-02-12T08:30:46.703Z,1.70
2019-02-12T08:33:12.938Z,2.15
2019-02-12T08:35:39.084Z,1.87
2019-02-12T08:38:05.257Z,1.77
2019-02-12T08:40:31.430Z,1.98
2019-02-12T08:42:57.598Z,2.12
2019-02-12T08:45:23.748Z,2.35
2019-02-12T08:47:49.933Z,1.57
2019-02-12T08:50:18.275Z,1.77
2019-02-12T08:52:43.961Z,1.80
2019-02-12T08:55:10.128Z,1.50
2019-02-12T08:57:36.289Z,1.47
2019-02-12T09:00:03.606Z,1.75
2019-02-12T09:02:29.917Z,1.25
2019-02-12T09:04:56.139Z,1.75
2019-02-12T09:07:22.301Z,1.55
2019-02-12T09:09:48.485Z,1.62
2019-02-12T09:12:14.637Z,1.35
2019-02-12T09:14:40.849Z,1.87
2019-02-12T09:17:07.031Z,1.50
2019-02-12T09:19:33.197Z,1.40
2019-02-12T09:21:59.352Z,1.60
2019-02-12T09:24:25.606Z,1.80
2019-02-12T09:26:51.760Z,1.65
2019-02-12T09:29:17.915Z,1.85
2019-02-12T09:31:44.136Z,1.67
2019-02-12T09:34:10.377Z,1.60
2019-02-12T09:36:36.527Z,1.75
2019-02-12T09:39:02.703Z,1.77
2019-02-12T09:41:28.862Z,1.37
2019-02-12T09:43:55.087Z,1.10
2019-02-12T09:46:21.289Z,1.52
2019-02-12T09:48:47.430Z,1.40
2019-02-12T09:51:13.590Z,1.30
2019-02-12T09:53:39.836Z,1.75
2019-02-12T09:56:06.000Z,1.67
2019-02-12T09:58:32.138Z,1.20
2019-02-12T10:00:58.321Z,1.57
2019-02-12T10:03:24.523Z,1.42
2019-02-12T10:05:50.682Z,1.60
2019-02-12T10:08:16.902Z,1.30
2019-02-12T10:10:43.063Z,1.70
2019-02-12T10:13:09.224Z,1.60
2019-02-12T10:15:35.416Z,2.10
2019-02-12T10:18:01.575Z,1.67
2019-02-12T10:20:27.751Z,1.40
2019-02-12T10:22:53.968Z,1.57
2019-02-12T10:25:20.170Z,1.27
2019-02-12T10:27:46.318Z,1.12
2019-02-12T10:30:12.521Z,1.40
2019-02-12T10:32:39.040Z,1.57
2019-02-12T10:35:05.230Z,1.77
2019-02-12T10:37:31.405Z,1.60
2019-02-12T10:39:57.554Z,1.40
2019-02-12T10:42:23.740Z,1.80
2019-02-12T10:44:49.907Z,1.60
2019-02-12T10:47:16.067Z,1.40
2019-02-12T10:49:42.229Z,1.45
2019-02-12T10:52:08.415Z,1.70
2019-02-12T10:54:34.617Z,1.35
2019-02-12T10:57:00.771Z,1.52
2019-02-12T10:59:26.963Z,1.40
2019-02-12T11:01:53.113Z,1.20
2019-02-12T11:04:19.337Z,1.50
2019-02-12T11:06:45.522Z,1.75
2019-02-12T11:09:11.688Z,1.70
2019-02-12T11:11:37.851Z,1.57
2019-02-12T11:14:04.080Z,1.55
2019-02-12T11:16:30.246Z,1.85
2019-02-12T11:18:56.406Z,1.92
2019-02-12T11:21:22.573Z,1.50
2019-02-12T11:23:48.780Z,1.55
2019-02-12T11:26:14.942Z,1.57
2019-02-12T11:28:41.109Z,1.85
2019-02-12T11:31:07.275Z,1.82
2019-02-12T11:33:33.467Z,1.80
2019-02-12T11:35:59.616Z,1.80
2019-02-12T11:38:25.813Z,1.55
2019-02-12T11:40:51.975Z,1.60
2019-02-12T11:43:18.176Z,1.35
2019-02-12T11:45:44.361Z,1.80
2019-02-12T11:48:10.525Z,1.70
2019-02-12T11:50:36.673Z,1.40
2019-02-12T11:53:02.926Z,1.50
2019-02-12T11:55:29.073Z,1.50
2019-02-12T11:57:55.229Z,1.65
2019-02-12T12:00:21.415Z,1.62
2019-02-12T12:02:47.605Z,1.60
2019-02-12T12:05:13.767Z,1.50
2019-02-12T12:07:39.952Z,1.52
2019-02-12T12:10:06.113Z,1.70
2019-02-12T12:12:32.322Z,1.50
2019-02-12T12:14:58.496Z,1.70
2019-02-12T12:17:24.643Z,1.62
2019-02-12T12:19:50.806Z,1.50
2019-02-12T12:22:16.992Z,1.57
2019-02-12T12:24:43.153Z,1.80
2019-02-12T12:27:09.312Z,1.47
2019-02-12T12:29:35.504Z,1.60
2019-02-12T12:32:01.657Z,1.45
2019-02-12T12:34:27.816Z,2.15
2019-02-12T12:36:53.989Z,1.80
2019-02-12T12:39:20.150Z,1.72
2019-02-12T12:41:46.308Z,1.62
2019-02-12T12:44:12.510Z,1.30
2019-02-12T12:46:38.671Z,1.82
2019-02-12T12:49:04.829Z,1.90
2019-02-12T12:51:31.008Z,1.65
2019-02-12T12:53:57.228Z,1.77
2019-02-12T12:56:23.381Z,1.90
2019-02-12T12:58:49.552Z,1.90
2019-02-12T13:01:15.709Z,1.72
2019-02-12T13:03:41.900Z,1.77
2019-02-12T13:06:08.085Z,1.90
2019-02-12T13:08:34.247Z,1.50
2019-02-12T13:11:00.395Z,1.62
2019-02-12T13:13:26.642Z,1.77
2019-02-12T13:15:52.791Z,1.70
2019-02-12T13:18:18.970Z,1.67
2019-02-12T13:20:45.153Z,1.70
2019-02-12T13:23:11.306Z,2.00
2019-02-12T13:25:37.468Z,1.70
2019-02-12T13:28:03.657Z,2.00
2019-02-12T13:30:29.816Z,1.47
2019-02-12T13:32:56.040Z,1.70
2019-02-12T13:35:22.214Z,1.82
2019-02-12T13:37:48.363Z,1.85
2019-02-12T13:40:14.519Z,2.02
2019-02-12T13:42:40.784Z,1.70
2019-02-12T13:45:06.941Z,1.62
2019-02-12T13:47:33.101Z,2.10
2019-02-12T13:49:59.371Z,1.70
2019-02-12T13:52:25.564Z,1.70
2019-02-12T13:54:51.725Z,1.92
2019-02-12T13:57:17.900Z,2.10
2019-02-12T13:59:44.049Z,2.00
2019-02-12T14:02:10.212Z,1.80
2019-02-12T14:04:36.400Z,2.00
2019-02-12T14:07:02.557Z,1.95
2019-02-12T14:09:28.718Z,1.82
2019-02-12T14:11:54.924Z,2.00
2019-02-12T14:14:21.084Z,1.77
2019-02-12T14:16:47.232Z,2.40
2019-02-12T14:19:13.406Z,1.95
2019-02-12T14:21:39.556Z,2.33
2019-02-12T14:24:05.717Z,2.05
2019-02-12T14:26:31.899Z,2.20
2019-02-12T14:28:58.056Z,1.77
2019-02-12T14:31:24.213Z,1.72
2019-02-12T14:33:50.473Z,2.20
2019-02-12T14:36:16.637Z,2.10
2019-02-12T14:38:42.780Z,1.90
2019-02-12T14:41:08.952Z,2.40
2019-02-12T14:43:35.153Z,2.15
2019-02-12T14:46:01.309Z,2.17
2019-02-12T14:48:27.493Z,2.37
2019-02-12T14:50:53.653Z,2.00
2019-02-12T14:53:19.873Z,2.20
2019-02-12T14:55:46.064Z,2.22
2019-02-12T14:58:12.214Z,2.10
2019-02-12T15:00:38.366Z,2.27
2019-02-12T15:03:04.613Z,2.27
2019-02-12T15:05:30.770Z,2.67
2019-02-12T15:07:56.928Z,2.12
2019-02-12T15:10:23.107Z,2.27
2019-02-12T15:12:49.292Z,2.42
2019-02-12T15:15:15.452Z,2.67
2019-02-12T15:17:41.636Z,2.47
2019-02-12T15:20:07.790Z,2.47
2019-02-12T15:22:34.005Z,2.25
2019-02-12T15:25:00.312Z,2.12
2019-02-12T15:27:26.435Z,1.95
2019-02-12T15:29:52.609Z,2.27
2019-02-12T15:32:18.854Z,2.02
2019-02-12T15:34:45.016Z,2.20
2019-02-12T15:37:11.177Z,2.70
2019-02-12T15:39:37.396Z,2.75
2019-02-12T15:42:03.633Z,2.17
2019-02-12T15:44:29.784Z,2.50
2019-02-12T15:46:55.967Z,2.20
2019-02-12T15:49:22.128Z,2.30
2019-02-12T15:51:48.294Z,2.30
2019-02-12T15:54:14.473Z,2.22
2019-02-12T15:56:40.634Z,2.60
2019-02-12T15:59:06.795Z,2.77
2019-02-12T16:01:32.966Z,2.58
2019-02-12T16:04:00.234Z,2.27
2019-02-12T16:06:26.453Z,2.58
2019-02-12T16:08:53.968Z,2.40
2019-02-12T16:11:20.980Z,2.33
2019-02-12T16:13:47.283Z,2.47
2019-02-12T16:16:13.471Z,2.17
2019-02-12T16:18:39.641Z,2.62
2019-02-12T16:21:05.802Z,2.55
2019-02-12T16:23:32.022Z,2.33
2019-02-12T16:25:59.623Z,2.30
2019-02-12T16:28:25.910Z,2.92
2019-02-12T16:30:52.090Z,2.72
2019-02-12T16:33:18.342Z,2.45
2019-02-12T16:35:44.506Z,2.65
2019-02-12T16:38:10.689Z,3.15
2019-02-12T16:40:36.867Z,3.08
2019-02-12T16:43:03.057Z,2.60
2019-02-12T16:45:29.243Z,2.80
2019-02-12T16:47:55.398Z,2.77
2019-02-12T16:50:21.546Z,2.67
2019-02-12T16:52:47.811Z,2.75
2019-02-12T16:55:13.978Z,2.85
2019-02-12T16:57:40.142Z,3.10
2019-02-12T17:00:06.328Z,2.77
2019-02-12T17:02:32.581Z,2.52
2019-02-12T17:04:58.741Z,2.42
2019-02-12T17:07:25.002Z,2.60
2019-02-12T17:09:52.512Z,2.70
2019-02-12T17:12:18.934Z,2.70
2019-02-12T17:14:45.132Z,2.55
2019-02-12T17:17:11.295Z,2.20
2019-02-12T17:19:37.464Z,2.70
2019-02-12T17:22:03.679Z,3.00
2019-02-12T17:24:29.842Z,2.90
2019-02-12T17:26:56.009Z,2.30
2019-02-12T17:29:22.189Z,2.80
2019-02-12T17:31:48.362Z,2.75
2019-02-12T17:34:14.520Z,2.90
2019-02-12T17:36:40.733Z,3.08
2019-02-12T17:39:06.873Z,3.30
2019-02-12T17:41:33.058Z,3.33
2019-02-12T17:43:59.225Z,2.83
2019-02-12T17:46:25.387Z,3.10
2019-02-12T17:48:51.567Z,3.40
2019-02-12T17:51:17.718Z,3.77
2019-02-12T17:53:43.870Z,3.27
2019-02-12T17:56:10.047Z,3.42
2019-02-12T17:58:36.210Z,3.52
2019-02-12T18:01:02.374Z,2.98
2019-02-12T18:03:28.661Z,3.15
2019-02-12T18:05:54.824Z,3.90
2019-02-12T18:08:20.988Z,3.15
2019-02-12T18:10:47.176Z,3.60
2019-02-12T18:13:13.373Z,3.72
2019-02-12T18:15:39.529Z,3.30
2019-02-12T18:18:05.706Z,3.30
2019-02-12T18:20:31.869Z,4.10
2019-02-12T18:22:58.047Z,3.70
2019-02-12T18:25:24.223Z,3.47
2019-02-12T18:27:50.398Z,3.47
2019-02-12T18:30:16.553Z,3.37
2019-02-12T18:32:42.802Z,3.42
2019-02-12T18:35:09.026Z,5.80
2019-02-12T18:37:35.185Z,5.15
2019-02-12T18:40:01.377Z,5.42
2019-02-12T18:42:27.582Z,5.70
2019-02-12T18:44:53.735Z,4.95
2019-02-12T18:47:19.924Z,4.15
2019-02-12T18:49:46.078Z,4.05
2019-02-12T18:52:12.290Z,5.05
2019-02-12T18:54:38.494Z,3.77
2019-02-12T18:57:04.664Z,3.58
2019-02-12T18:59:30.834Z,3.37
2019-02-12T19:01:57.033Z,3.52
2019-02-12T19:04:23.189Z,3.52
2019-02-12T19:06:49.344Z,3.70
2019-02-12T19:09:15.521Z,4.10
2019-02-12T19:11:52.628Z,3.58
2019-02-12T19:14:09.608Z,3.42
2019-02-12T19:16:35.795Z,3.52
2019-02-12T19:19:02.226Z,4.10
2019-02-12T19:21:28.521Z,4.10
2019-02-12T19:23:54.708Z,3.85
2019-02-12T19:26:20.857Z,4.08
2019-02-12T19:28:47.018Z,4.17
2019-02-12T19:31:13.224Z,3.70
2019-02-12T19:33:39.372Z,4.22
2019-02-12T19:36:05.526Z,4.22
2019-02-12T19:38:31.701Z,4.20
2019-02-12T19:40:57.867Z,4.75
2019-02-12T19:43:24.021Z,3.45
2019-02-12T19:45:50.206Z,3.42
2019-02-12T19:48:16.367Z,3.42
2019-02-12T19:50:42.514Z,4.00
2019-02-12T19:53:08.772Z,4.80
2019-02-12T19:55:34.929Z,4.20
2019-02-12T19:58:01.084Z,4.30
2019-02-12T20:00:27.274Z,4.00
2019-02-12T20:02:53.458Z,4.20
2019-02-12T20:05:19.611Z,4.05
2019-02-12T20:07:46.004Z,4.00
2019-02-12T20:10:12.166Z,4.08
2019-02-12T20:12:38.371Z,4.37
2019-02-12T20:15:04.553Z,3.87
2019-02-12T20:17:30.705Z,3.80
2019-02-12T20:19:57.213Z,4.50
2019-02-12T20:22:23.629Z,3.72
2019-02-12T20:24:49.783Z,4.17
2019-02-12T20:27:15.941Z,4.53
2019-02-12T20:29:42.121Z,4.05
2019-02-12T20:32:08.309Z,4.30
2019-02-12T20:34:34.464Z,3.12
2019-02-12T20:37:00.643Z,3.55
2019-02-12T20:39:26.815Z,3.40
2019-02-12T20:41:53.077Z,3.25
2019-02-12T20:44:19.276Z,3.83
2019-02-12T20:46:45.450Z,4.65
2019-02-12T20:49:11.685Z,4.10
2019-02-12T20:51:37.972Z,4.33
2019-02-12T20:54:04.139Z,3.72
2019-02-12T20:56:30.314Z,5.25
2019-02-12T20:58:56.532Z,4.17
2019-02-12T21:01:22.917Z,4.35
2019-02-12T21:03:49.091Z,3.65
2019-02-12T21:06:15.256Z,3.85
2019-02-12T21:08:44.048Z,3.60
2019-02-12T21:11:10.263Z,3.92
2019-02-12T21:13:36.544Z,3.95
2019-02-12T21:16:02.721Z,3.95
2019-02-12T21:18:28.916Z,4.30
2019-02-12T21:20:55.092Z,4.22
2019-02-12T21:23:21.255Z,3.77
2019-02-12T21:25:47.565Z,4.12
2019-02-12T21:28:13.717Z,4.78
2019-02-12T21:30:40.042Z,4.20
2019-02-12T21:33:06.424Z,8.78
2019-02-12T21:35:33.057Z,5.40
2019-02-12T21:37:59.325Z,7.87
2019-02-12T21:40:25.517Z,3.65
2019-02-12T21:42:51.896Z,5.17
2019-02-12T21:45:18.062Z,12.15
2019-02-12T21:47:45.433Z,4.33
2019-02-12T21:50:11.592Z,4.22
2019-02-12T21:52:37.804Z,12.70
2019-02-12T21:55:04.068Z,3.98
2019-02-12T21:57:31.689Z,3.87
2019-02-12T21:59:58.102Z,3.87
2019-02-12T22:02:24.360Z,7.97
2019-02-12T22:04:50.521Z,4.10
2019-02-12T22:07:16.681Z,8.63
2019-02-12T22:09:42.862Z,4.42
2019-02-12T22:12:09.141Z,7.15
2019-02-12T22:14:35.366Z,4.28
2019-02-12T22:17:02.985Z,4.28
2019-02-12T22:19:29.180Z,4.17
2019-02-12T22:21:55.423Z,4.62
